Time;durP1;ratioP1;P1;durP2;ratioP2;P2;SDS_P1;SDS_P2;PMS_P1;PMS_P2;Temp;Humidity;BMP_temperature;BMP_pressure;BME280_temperature;BME280_humidity;BME280_pressure;Samples;Min_cycle;Max_cycle;Signal;HPM_P1;HPM_P2
2022/05/26 00:01:41;;;;;;;1.37;1.27;;;21.20;55.70;22.50;101010.00;;;;4990584;28;20184;-49
2022/05/26 00:04:06;;;;;;;1.50;1.40;;;21.10;55.60;22.50;100935.00;;;;4990668;28;20168;-49
2022/05/26 00:06:32;;;;;;;1.63;1.40;;;21.10;55.60;22.50;101009.00;;;;4990334;28;20182;-49
2022/05/26 00:08:58;;;;;;;2.10;1.57;;;21.20;55.70;22.60;101002.00;;;;4988902;28;20180;-49
2022/05/26 00:11:28;;;;;;;1.53;1.20;;;21.10;55.60;22.60;100996.00;;;;4990887;28;20180;-48
2022/05/26 00:13:54;;;;;;;1.07;1.00;;;21.10;55.80;22.50;100995.00;;;;4989453;28;20200;-48
2022/05/26 00:16:20;;;;;;;1.40;1.30;;;21.10;55.80;22.50;100991.00;;;;4990413;28;20655;-49
2022/05/26 00:18:46;;;;;;;1.03;1.03;;;21.20;55.90;22.50;100995.00;;;;4990399;28;20172;-49
2022/05/26 00:21:11;;;;;;;1.50;1.20;;;21.10;55.90;22.50;100996.00;;;;4993811;28;20775;-48
2022/05/26 00:23:37;;;;;;;2.07;1.30;;;21.10;55.90;22.50;101007.00;;;;4993365;28;20712;-48
2022/05/26 00:26:03;;;;;;;1.67;1.30;;;21.10;55.90;22.50;100998.00;;;;4991861;28;20192;-49
2022/05/26 00:28:30;;;;;;;1.33;1.23;;;21.10;55.90;22.50;100999.00;;;;4989992;28;20227;-49
2022/05/26 00:30:55;;;;;;;1.73;1.40;;;21.10;55.90;22.50;101005.00;;;;4990277;28;20226;-50
2022/05/26 00:33:21;;;;;;;2.27;1.40;;;21.10;55.90;22.20;100998.00;;;;4989813;28;20728;-49
2022/05/26 00:35:47;;;;;;;1.30;1.20;;;21.10;55.90;22.50;100989.00;;;;4989709;28;20172;-49
2022/05/26 00:38:13;;;;;;;1.27;1.20;;;21.10;56.00;22.40;100993.00;;;;4989633;28;20777;-49
2022/05/26 00:40:40;;;;;;;2.20;1.40;;;21.10;56.10;22.40;100984.00;;;;4988786;28;20593;-48
2022/05/26 00:43:06;;;;;;;1.30;1.20;;;21.00;56.00;22.40;100993.00;;;;4988374;28;20196;-48
2022/05/26 00:45:45;;;;;;;1.53;1.40;;;21.00;56.00;22.40;100977.00;;;;4989627;28;20262;-48
2022/05/26 00:48:15;;;;;;;1.40;1.30;;;21.00;56.10;22.40;100991.00;;;;4971627;28;20172;-49
2022/05/26 00:50:56;;;;;;;1.17;1.07;;;21.00;56.20;22.40;100987.00;;;;4972477;28;20196;-48
2022/05/26 00:53:42;;;;;;;2.83;1.30;;;21.00;56.20;22.40;100984.00;;;;4974308;28;20586;-49
2022/05/26 00:56:18;;;;;;;1.50;1.23;;;21.00;56.20;22.40;100993.00;;;;4989730;28;20682;-48
2022/05/26 00:58:47;;;;;;;1.10;1.10;;;21.00;56.20;22.40;100980.00;;;;4974190;28;20168;-49
2022/05/26 01:01:13;;;;;;;1.23;1.13;;;21.00;56.20;22.30;100981.00;;;;4990572;28;20206;-48
2022/05/26 01:03:42;;;;;;;1.30;1.20;;;21.00;56.30;22.30;100994.00;;;;4989325;28;20180;-48
2022/05/26 01:06:08;;;;;;;1.17;1.10;;;20.90;56.40;22.30;100989.00;;;;4972092;28;20191;-49
2022/05/26 01:08:45;;;;;;;2.10;1.43;;;21.00;56.40;22.40;101001.00;;;;4988995;28;20172;-48
2022/05/26 01:11:10;;;;;;;1.50;1.40;;;20.90;56.30;22.30;100988.00;;;;4987884;28;20665;-48
2022/05/26 01:13:45;;;;;;;1.50;1.37;;;20.90;56.40;22.30;100989.00;;;;4989205;28;20200;-50
2022/05/26 01:16:35;;;;;;;1.53;1.30;;;20.90;56.40;22.30;100988.00;;;;4972264;28;20160;-48
2022/05/26 01:19:35;;;;;;;1.57;1.47;;;20.90;56.40;22.30;100983.00;;;;4974555;28;20179;-48
2022/05/26 01:22:25;;;;;;;1.33;1.27;;;20.90;56.40;22.30;100992.00;;;;4987555;28;20307;-49
2022/05/26 01:25:40;;;;;;;1.70;1.40;;;20.90;56.40;22.30;101002.00;;;;4988160;28;20179;-53
2022/05/26 01:28:40;;;;;;;2.07;1.40;;;20.90;56.40;22.30;100995.00;;;;5010734;28;20180;-49
2022/05/26 01:31:30;;;;;;;0.80;0.80;;;20.90;56.40;22.30;100991.00;;;;4990321;28;20200;-49
2022/05/26 01:34:03;;;;;;;1.23;1.23;;;20.90;56.50;22.30;100967.00;;;;4988430;28;20210;-48
2022/05/26 01:36:57;;;;;;;1.37;1.27;;;20.90;56.40;22.30;100990.00;;;;4989005;28;20188;-50
2022/05/26 01:39:57;;;;;;;1.20;1.20;;;20.90;56.70;22.20;101000.00;;;;4975969;28;20317;-49
2022/05/26 01:42:45;;;;;;;2.53;1.20;;;20.90;56.60;22.20;101005.00;;;;4988292;28;20171;-48
2022/05/26 01:45:40;;;;;;;1.37;1.27;;;20.90;56.70;22.30;101006.00;;;;4972584;28;20183;-49
2022/05/26 01:48:34;;;;;;;1.50;1.20;;;20.90;56.60;22.20;101000.00;;;;4988428;28;20160;-47
2022/05/26 01:51:18;;;;;;;1.33;1.30;;;20.90;56.60;22.20;101001.00;;;;4974716;28;20195;-50
2022/05/26 01:54:23;;;;;;;1.60;1.47;;;20.90;56.70;22.20;101007.00;;;;4988510;28;20188;-49
2022/05/26 01:57:04;;;;;;;1.13;1.13;;;20.90;56.70;22.20;101015.00;;;;4987083;28;20209;-49
2022/05/26 01:59:46;;;;;;;1.37;1.27;;;20.90;56.70;22.20;101001.00;;;;4971013;28;20189;-49
2022/05/26 02:02:19;;;;;;;1.83;1.17;;;20.80;56.70;22.20;101006.00;;;;4989705;28;20221;-49
2022/05/26 02:05:07;;;;;;;1.40;1.30;;;20.90;56.70;22.20;100992.00;;;;4972056;28;20606;-49
2022/05/26 02:07:37;;;;;;;1.30;1.20;;;20.80;56.70;22.20;101006.00;;;;4956771;28;20195;-49
2022/05/26 02:10:08;;;;;;;1.30;1.20;;;20.80;56.70;22.20;101000.00;;;;4971321;28;20191;-49
2022/05/26 02:12:41;;;;;;;1.00;1.00;;;20.80;56.70;22.20;101012.00;;;;4970915;28;20203;-49
2022/05/26 02:15:11;;;;;;;1.27;1.20;;;20.80;56.70;22.20;101010.00;;;;4971093;28;20195;-49
2022/05/26 02:17:51;;;;;;;1.33;1.23;;;20.90;56.70;22.20;101013.00;;;;4970758;28;20231;-49
2022/05/26 02:20:28;;;;;;;1.90;1.20;;;20.80;56.70;22.20;101010.00;;;;4987538;28;20265;-48
2022/05/26 02:23:00;;;;;;;1.37;1.27;;;20.80;56.70;22.20;101010.00;;;;4987037;28;20243;-49
2022/05/26 02:25:26;;;;;;;1.43;1.33;;;20.80;56.70;22.20;101010.00;;;;4986936;28;20273;-49
2022/05/26 02:27:53;;;;;;;1.37;1.30;;;20.80;56.70;22.20;101010.00;;;;4986883;28;20255;-48
2022/05/26 02:30:21;;;;;;;1.27;1.17;;;20.80;56.70;22.20;101013.00;;;;4986761;28;20259;-50
2022/05/26 02:32:48;;;;;;;1.10;1.00;;;20.80;56.70;22.20;101018.00;;;;4971290;28;20246;-50
2022/05/26 02:35:16;;;;;;;1.67;1.20;;;20.80;56.70;22.10;101016.00;;;;4986438;28;20171;-49
2022/05/26 02:37:43;;;;;;;1.30;1.20;;;20.80;56.70;22.10;101010.00;;;;4987813;28;20187;-50
2022/05/26 02:40:10;;;;;;;1.43;1.30;;;20.80;56.70;22.10;101010.00;;;;4987819;28;20191;-49
2022/05/26 02:42:48;;;;;;;1.40;1.17;;;20.80;56.70;22.10;101026.00;;;;4990078;28;20183;-50
2022/05/26 02:45:16;;;;;;;1.40;1.30;;;20.80;56.70;22.10;101021.00;;;;4977896;28;20157;-50
2022/05/26 02:48:06;;;;;;;1.00;1.00;;;20.80;56.70;22.10;101026.00;;;;4971286;28;20213;-49
2022/05/26 02:50:41;;;;;;;1.20;1.20;;;20.70;56.60;22.10;101022.00;;;;4956271;28;20552;-50
2022/05/26 02:53:11;;;;;;;1.50;1.40;;;20.70;56.60;22.10;101029.00;;;;4986641;28;20236;-49
2022/05/26 02:56:01;;;;;;;1.30;1.20;;;20.80;56.70;22.10;101024.00;;;;4970797;28;20174;-49
2022/05/26 02:58:51;;;;;;;1.00;1.00;;;20.70;56.60;22.10;101037.00;;;;4987930;28;20195;-48
2022/05/26 03:01:28;;;;;;;1.13;1.13;;;20.80;56.70;22.10;101033.00;;;;4970635;28;20807;-49
2022/05/26 03:04:20;;;;;;;1.30;1.20;;;20.70;56.80;22.10;101029.00;;;;4970597;28;20186;-48
2022/05/26 03:06:54;;;;;;;1.17;1.17;;;20.70;56.80;22.10;101032.00;;;;4971388;28;20165;-50
2022/05/26 03:09:20;;;;;;;2.00;1.40;;;20.70;57.00;22.00;101039.00;;;;4970684;28;20261;-52
2022/05/26 03:11:50;;;;;;;1.40;1.30;;;20.70;56.90;22.00;101035.00;;;;4973467;28;20255;-48
2022/05/26 03:14:16;;;;;;;1.37;1.27;;;20.70;56.90;22.00;101037.00;;;;4991376;28;20203;-49
2022/05/26 03:16:42;;;;;;;1.97;1.40;;;20.70;56.90;22.00;101039.00;;;;4991235;28;20173;-49
2022/05/26 03:19:08;;;;;;;1.37;1.27;;;20.70;57.00;22.00;101030.00;;;;4989805;28;20206;-49
2022/05/26 03:21:33;;;;;;;4.77;1.13;;;20.70;57.20;22.00;101028.00;;;;4990812;28;20198;-49
2022/05/26 03:23:59;;;;;;;2.10;1.00;;;20.70;57.20;22.00;101029.00;;;;4991132;28;20179;-49
2022/05/26 03:26:25;;;;;;;2.70;1.60;;;20.70;57.10;22.00;101037.00;;;;4991247;28;20193;-49
2022/05/26 03:28:50;;;;;;;2.37;1.50;;;20.70;57.10;22.00;101037.00;;;;4991123;28;20175;-49
2022/05/26 03:31:16;;;;;;;3.10;1.20;;;20.70;56.90;22.00;101028.00;;;;4991495;28;20207;-48
2022/05/26 03:41:54;;;;;;;1.30;1.20;;;20.60;56.70;22.00;101044.00;;;;4999134;28;20167;-50
2022/05/26 03:44:20;;;;;;;1.57;1.20;;;20.60;56.70;22.00;101037.00;;;;4992306;28;20173;-50
2022/05/26 03:46:46;;;;;;;2.33;1.27;;;20.60;56.60;22.00;101047.00;;;;4975566;28;20182;-48
2022/05/26 03:49:11;;;;;;;1.50;1.30;;;20.60;56.70;22.00;101050.00;;;;4991776;28;20232;-49
2022/05/26 03:51:37;;;;;;;1.77;1.37;;;20.60;56.70;22.00;101042.00;;;;4993500;28;20172;-49
2022/05/26 03:54:03;;;;;;;1.47;1.37;;;20.60;56.70;22.00;101051.00;;;;4991665;28;20206;-49
2022/05/26 03:56:28;;;;;;;1.70;1.10;;;20.60;56.80;22.00;101050.00;;;;4991104;28;20207;-49
2022/05/26 03:58:54;;;;;;;1.30;1.20;;;20.60;56.70;22.00;101048.00;;;;4990743;28;20177;-49
2022/05/26 04:01:21;;;;;;;2.43;1.40;;;20.60;56.80;21.90;101050.00;;;;4990518;28;20199;-48
2022/05/26 04:03:47;;;;;;;2.30;1.40;;;20.60;56.70;22.00;101053.00;;;;4991074;28;20180;-49
2022/05/26 04:06:12;;;;;;;1.60;1.20;;;20.60;56.70;21.90;101055.00;;;;4990084;28;20719;-49
2022/05/26 04:08:38;;;;;;;3.20;1.40;;;20.60;56.70;21.90;101057.00;;;;4990093;28;20719;-48
2022/05/26 04:11:04;;;;;;;1.83;1.10;;;20.60;56.80;21.90;101062.00;;;;4990149;28;20194;-49
2022/05/26 04:13:30;;;;;;;1.80;1.40;;;20.60;56.80;21.90;101060.00;;;;4990222;28;20207;-48
2022/05/26 04:15:56;;;;;;;1.40;1.20;;;20.60;57.50;21.90;101049.00;;;;4990629;28;20187;-48
2022/05/26 04:18:21;;;;;;;1.70;1.60;;;20.60;56.80;21.90;101071.00;;;;4988906;28;20359;-50
2022/05/26 04:20:47;;;;;;;1.60;1.43;;;20.60;56.90;21.90;101075.00;;;;4989506;28;20206;-50
2022/05/26 04:23:13;;;;;;;2.20;1.43;;;20.60;56.90;21.90;101076.00;;;;4990171;28;20184;-49
2022/05/26 04:25:39;;;;;;;1.73;1.53;;;20.60;56.90;21.90;101066.00;;;;4989614;28;20523;-50
2022/05/26 04:28:04;;;;;;;1.57;1.40;;;20.50;56.90;21.90;101080.00;;;;4988431;28;20172;-49
2022/05/26 04:30:30;;;;;;;1.50;1.23;;;20.50;57.10;21.90;101083.00;;;;4989931;28;20246;-48
2022/05/26 04:32:56;;;;;;;2.57;1.40;;;20.50;57.20;21.90;101086.00;;;;4989720;28;20204;-49
2022/05/26 04:35:22;;;;;;;2.00;1.43;;;20.50;57.20;21.90;101083.00;;;;4989997;28;20173;-48
2022/05/26 04:37:48;;;;;;;2.13;1.50;;;20.50;57.10;21.90;101099.00;;;;4990358;28;20718;-50
2022/05/26 04:40:13;;;;;;;1.60;1.50;;;20.50;57.10;21.90;101092.00;;;;4990228;28;20563;-49
2022/05/26 04:42:39;;;;;;;2.67;1.60;;;20.50;57.10;21.90;101080.00;;;;4988420;28;20179;-48
2022/05/26 04:45:07;;;;;;;1.50;1.40;;;20.50;57.20;21.90;101093.00;;;;4990039;28;20175;-49
2022/05/26 04:47:33;;;;;;;1.77;1.53;;;20.50;57.20;21.90;101095.00;;;;4989695;28;20187;-48
2022/05/26 04:49:58;;;;;;;1.90;1.40;;;20.50;57.20;21.90;101091.00;;;;4989500;28;20221;-51
2022/05/26 04:52:24;;;;;;;3.37;1.70;;;20.50;57.30;21.90;101107.00;;;;4991234;28;20171;-50
2022/05/26 04:54:52;;;;;;;1.70;1.60;;;20.50;57.30;21.90;101099.00;;;;4990329;28;20180;-49
2022/05/26 04:57:20;;;;;;;1.60;1.50;;;20.50;57.30;21.90;101103.00;;;;4989352;28;20233;-50
2022/05/26 04:59:45;;;;;;;1.77;1.20;;;20.50;57.30;21.90;101096.00;;;;4989283;28;20207;-50
2022/05/26 05:02:13;;;;;;;2.07;1.70;;;20.50;57.40;21.80;101106.00;;;;4974520;28;20596;-49
2022/05/26 05:04:39;;;;;;;2.33;1.50;;;20.50;57.60;21.80;101107.00;;;;4988766;28;20183;-49
2022/05/26 05:07:05;;;;;;;1.77;1.67;;;20.50;57.50;21.80;101118.00;;;;4988692;28;20183;-49
2022/05/26 05:09:31;;;;;;;1.90;1.53;;;20.50;57.50;21.80;101112.00;;;;4988903;28;20662;-49
2022/05/26 05:11:57;;;;;;;1.63;1.53;;;20.50;57.70;21.80;101115.00;;;;4988626;28;20492;-49
2022/05/26 05:14:22;;;;;;;1.73;1.63;;;20.50;57.70;21.80;101117.00;;;;4988659;28;20198;-50
2022/05/26 05:16:48;;;;;;;2.40;1.63;;;20.40;57.60;21.80;101113.00;;;;4987505;28;20189;-50
2022/05/26 05:19:18;;;;;;;1.70;1.60;;;20.40;57.60;21.80;101116.00;;;;4988365;28;20581;-49
2022/05/26 05:21:53;;;;;;;1.83;1.43;;;20.40;57.60;21.80;101119.00;;;;4988566;28;20205;-49
2022/05/26 05:24:23;;;;;;;2.27;1.90;;;20.40;57.60;21.80;101129.00;;;;4988619;28;20187;-50
2022/05/26 05:26:50;;;;;;;1.97;1.77;;;20.40;57.60;21.70;101133.00;;;;4987893;28;20230;-51
2022/05/26 05:29:16;;;;;;;1.50;1.40;;;20.40;57.90;21.70;101125.00;;;;4989870;28;20789;-50
2022/05/26 05:31:57;;;;;;;2.87;1.60;;;20.40;57.70;21.70;101102.00;;;;4987792;28;20228;-49
2022/05/26 05:34:38;;;;;;;2.93;1.70;;;20.40;57.80;21.70;101129.00;;;;4987131;28;20189;-50
2022/05/26 05:37:05;;;;;;;1.77;1.60;;;20.40;57.90;21.70;101137.00;;;;4988752;28;20169;-50
2022/05/26 05:39:30;;;;;;;2.00;1.70;;;20.40;58.20;21.60;101149.00;;;;4993922;28;20220;-49
2022/05/26 05:41:57;;;;;;;2.90;1.93;;;20.40;58.10;21.60;101147.00;;;;5001600;28;20679;-50
2022/05/26 05:44:22;;;;;;;2.13;1.80;;;20.30;58.10;21.60;101151.00;;;;4971470;28;20205;-51
2022/05/26 05:46:54;;;;;;;2.30;2.00;;;20.30;58.00;21.60;101152.00;;;;4988927;28;20170;-49
2022/05/26 05:49:30;;;;;;;1.93;1.73;;;20.30;58.00;21.60;101149.00;;;;4988027;28;20198;-49
2022/05/26 05:51:57;;;;;;;1.83;1.70;;;20.30;58.00;21.60;101149.00;;;;5011666;28;20160;-49
2022/05/26 05:54:23;;;;;;;2.67;1.70;;;20.30;58.10;21.60;101147.00;;;;4997759;28;20226;-49
2022/05/26 05:56:48;;;;;;;1.90;1.80;;;20.30;58.10;21.50;101156.00;;;;4989685;28;20213;-49
2022/05/26 05:59:14;;;;;;;2.93;2.00;;;20.30;58.10;21.50;101164.00;;;;4988230;28;20171;-49
2022/05/26 06:01:40;;;;;;;1.97;1.80;;;20.30;58.10;21.50;101157.00;;;;4989155;28;20194;-49
2022/05/26 06:04:06;;;;;;;1.80;1.70;;;20.30;58.20;21.50;101151.00;;;;4989382;28;20600;-49
2022/05/26 06:06:40;;;;;;;1.83;1.70;;;20.30;58.30;21.50;101154.00;;;;4989803;28;20180;-50
2022/05/26 06:09:06;;;;;;;3.33;1.90;;;20.30;58.30;21.50;101166.00;;;;4987431;28;20269;-49
2022/05/26 06:11:32;;;;;;;2.90;2.20;;;20.30;58.30;21.50;101163.00;;;;4987158;28;20268;-49
2022/05/26 06:13:58;;;;;;;1.90;1.80;;;20.20;58.10;21.50;101170.00;;;;4987909;28;20212;-50
2022/05/26 06:16:24;;;;;;;2.50;1.97;;;20.30;58.10;21.60;101171.00;;;;4987484;28;20193;-48
2022/05/26 06:18:50;;;;;;;2.00;1.80;;;20.30;58.00;21.50;101177.00;;;;4986812;28;20174;-49
2022/05/26 06:21:16;;;;;;;1.90;1.80;;;20.30;58.10;21.50;101182.00;;;;4987735;28;20280;-50
2022/05/26 06:23:42;;;;;;;2.40;2.03;;;20.30;58.00;21.60;101182.00;;;;4988320;28;20169;-50
2022/05/26 06:26:08;;;;;;;2.33;2.07;;;20.30;58.10;21.50;101194.00;;;;4987542;28;20206;-50
2022/05/26 06:31:25;;;;;;;2.00;1.80;;;20.30;58.00;21.50;101202.00;;;;4971289;28;20310;-49
2022/05/26 06:37:37;;;;;;;3.43;2.20;;;20.30;58.20;21.50;101206.00;;;;4987862;28;20580;-50
2022/05/26 06:39:30;;;;;;;3.07;2.07;;;20.20;58.10;21.50;101134.00;;;;4982474;28;20582;-48
2022/05/26 06:42:08;;;;;;;2.30;2.00;;;20.20;58.00;21.50;101202.00;;;;4988493;28;20172;-48
2022/05/26 06:44:39;;;;;;;3.40;2.10;;;20.30;57.90;21.50;101210.00;;;;4987790;28;20889;-49
2022/05/26 06:47:07;;;;;;;3.20;2.20;;;20.20;57.80;21.50;101206.00;;;;4990349;28;20526;-48
2022/05/26 06:49:35;;;;;;;4.17;2.40;;;20.20;57.70;21.50;101208.00;;;;4991392;28;20198;-50
2022/05/26 06:52:02;;;;;;;2.40;2.20;;;20.30;57.70;21.50;101208.00;;;;4991964;28;20522;-48
2022/05/26 06:54:32;;;;;;;2.87;2.37;;;20.30;57.90;21.50;101212.00;;;;4990989;28;20205;-48
2022/05/26 06:56:59;;;;;;;3.13;2.40;;;20.20;57.90;21.50;101208.00;;;;5007114;28;20170;-49
2022/05/26 06:59:25;;;;;;;3.10;2.50;;;20.20;58.00;21.50;101212.00;;;;4990840;28;20619;-49
2022/05/26 07:01:51;;;;;;;3.93;2.40;;;20.20;58.00;21.50;101225.00;;;;4991410;28;20194;-50
2022/05/26 07:04:16;;;;;;;4.83;2.80;;;20.20;58.10;21.50;101223.00;;;;4991694;28;20229;-51
2022/05/26 07:06:42;;;;;;;3.07;2.20;;;20.20;58.10;21.50;101232.00;;;;4993159;28;20181;-49
2022/05/26 07:09:08;;;;;;;3.00;2.43;;;20.20;58.10;21.50;101229.00;;;;4974366;28;20187;-49
2022/05/26 07:11:33;;;;;;;3.10;2.30;;;20.20;58.00;21.50;101232.00;;;;4991503;28;20172;-49
2022/05/26 07:13:59;;;;;;;2.70;2.30;;;20.20;58.10;21.50;101230.00;;;;4991237;28;20198;-50
2022/05/26 07:16:25;;;;;;;2.93;2.30;;;20.20;58.10;21.50;101230.00;;;;4991007;28;20536;-50
2022/05/26 07:18:53;;;;;;;3.47;2.57;;;20.20;58.10;21.50;101236.00;;;;4989330;28;20168;-50
2022/05/26 07:21:19;;;;;;;3.00;2.40;;;20.20;58.10;21.50;101233.00;;;;4990740;28;20214;-50
2022/05/26 07:23:45;;;;;;;2.77;2.47;;;20.20;58.10;21.50;101240.00;;;;4989035;28;20176;-50
2022/05/26 07:26:12;;;;;;;3.53;2.33;;;20.20;58.10;21.50;101245.00;;;;4895475;28;20203;-49
2022/05/26 07:28:40;;;;;;;2.90;2.33;;;20.20;58.10;21.50;101247.00;;;;4989636;28;20274;-49
2022/05/26 07:31:07;;;;;;;3.97;2.30;;;20.10;58.00;21.50;101248.00;;;;4990980;28;20676;-50
2022/05/26 07:33:33;;;;;;;2.70;2.43;;;20.20;58.10;21.50;101253.00;;;;4990846;28;20257;-49
2022/05/26 07:35:59;;;;;;;2.73;2.30;;;20.10;58.00;21.50;101253.00;;;;4991066;28;20186;-50
2022/05/26 07:41:19;;;;;;;2.70;2.40;;;20.20;58.10;21.50;101241.00;;;;4990632;28;20307;-49
2022/05/26 07:43:52;;;;;;;2.60;2.40;;;20.20;58.10;21.50;101257.00;;;;4989881;28;20177;-48
2022/05/26 07:46:21;;;;;;;2.90;2.60;;;20.20;58.10;21.50;101255.00;;;;4989347;28;20174;-49
2022/05/26 07:48:49;;;;;;;3.17;2.50;;;20.20;58.20;21.50;101254.00;;;;4990276;28;20639;-48
2022/05/26 07:51:16;;;;;;;3.63;2.50;;;20.20;58.20;21.50;101256.00;;;;4989423;28;20288;-53
2022/05/26 07:53:42;;;;;;;2.63;2.43;;;20.20;58.50;21.50;101259.00;;;;4990271;28;20188;-49
2022/05/26 07:56:09;;;;;;;3.03;2.60;;;20.20;58.60;21.50;101266.00;;;;4990143;28;20817;-49
2022/05/26 07:58:35;;;;;;;4.03;2.73;;;20.10;58.60;21.50;101263.00;;;;4988992;28;20181;-50
2022/05/26 08:01:03;;;;;;;3.87;2.40;;;20.20;58.70;21.40;101265.00;;;;4989247;28;20263;-50
2022/05/26 08:03:29;;;;;;;5.37;2.60;;;20.20;58.60;21.40;101263.00;;;;5002124;28;20239;-48
2022/05/26 08:05:55;;;;;;;2.60;2.40;;;20.10;59.10;21.40;101265.00;;;;5004712;28;20281;-49
2022/05/26 08:08:21;;;;;;;5.23;2.50;;;20.20;58.50;21.40;101265.00;;;;4997445;28;20201;-48
2022/05/26 08:10:46;;;;;;;5.20;2.47;;;20.20;58.50;21.40;101272.00;;;;4993469;28;20205;-49
2022/05/26 08:13:12;;;;;;;5.03;2.63;;;20.20;58.40;21.40;101263.00;;;;4991245;28;20204;-49
2022/05/26 08:15:38;;;;;;;3.53;2.50;;;20.20;58.30;21.40;101278.00;;;;4991917;28;20195;-49
2022/05/26 08:18:04;;;;;;;3.63;2.20;;;20.20;58.30;21.40;101283.00;;;;4991209;28;20173;-49
2022/05/26 08:20:29;;;;;;;2.93;2.40;;;20.20;58.20;21.40;101284.00;;;;4990422;28;20217;-49
2022/05/26 08:22:55;;;;;;;3.80;2.50;;;20.20;58.20;21.50;101276.00;;;;4990457;28;20169;-49
2022/05/26 08:25:21;;;;;;;4.17;2.27;;;20.20;58.20;21.40;101287.00;;;;4919956;28;20551;-49
2022/05/26 08:27:47;;;;;;;2.60;2.40;;;20.20;58.10;21.50;101290.00;;;;4989537;28;20729;-49
2022/05/26 08:30:14;;;;;;;2.30;2.10;;;20.30;58.20;21.50;101296.00;;;;4990312;28;20203;-49
2022/05/26 08:32:41;;;;;;;2.57;2.30;;;20.30;58.10;21.50;101288.00;;;;4989892;28;20172;-49
2022/05/26 08:35:08;;;;;;;2.50;2.30;;;20.30;58.20;21.50;101295.00;;;;4989296;28;20572;-48
2022/05/26 08:37:34;;;;;;;4.80;2.40;;;20.30;58.10;21.50;101292.00;;;;4989590;28;20257;-50
2022/05/26 08:40:00;;;;;;;3.03;2.43;;;20.30;58.10;21.50;101290.00;;;;4989133;28;20742;-50
2022/05/26 08:42:34;;;;;;;2.63;2.30;;;20.30;58.10;21.50;101292.00;;;;4989976;28;20184;-49
2022/05/26 08:45:26;;;;;;;2.67;2.47;;;20.30;58.10;21.50;101306.00;;;;4973788;28;20160;-50
2022/05/26 08:47:52;;;;;;;2.50;2.30;;;20.30;58.10;21.50;101301.00;;;;4990523;28;20577;-50
2022/05/26 08:50:29;;;;;;;3.60;2.40;;;20.30;58.00;21.50;101299.00;;;;4991224;28;20242;-50
2022/05/26 08:53:05;;;;;;;2.53;2.20;;;20.30;58.00;21.50;101305.00;;;;4972934;28;20199;-49
2022/05/26 08:55:43;;;;;;;2.50;2.20;;;20.30;58.10;21.50;101301.00;;;;4972206;28;20661;-49
2022/05/26 08:58:17;;;;;;;2.47;2.20;;;20.40;58.10;21.50;101314.00;;;;4987954;28;20180;-49
2022/05/26 09:00:44;;;;;;;2.50;2.23;;;20.30;58.00;21.50;101316.00;;;;4988176;28;20203;-50
2022/05/26 09:03:34;;;;;;;2.60;2.40;;;20.30;58.00;21.50;101324.00;;;;4988865;28;20692;-50
2022/05/26 09:06:11;;;;;;;2.60;2.37;;;20.30;58.10;21.50;101323.00;;;;4988693;28;20241;-50
2022/05/26 09:14:39;;;;;;;5.93;2.43;;;20.40;58.50;21.50;101331.00;;;;4988874;28;20223;-49
2022/05/26 09:17:10;;;;;;;3.47;2.47;;;20.40;58.60;21.50;101337.00;;;;4988628;28;20168;-49
2022/05/26 09:19:45;;;;;;;5.27;2.60;;;20.40;58.60;21.50;101329.00;;;;4988454;28;20226;-48
2022/05/26 09:22:27;;;;;;;3.93;2.30;;;20.40;58.50;21.60;101339.00;;;;4988236;28;20682;-49
2022/05/26 09:24:53;;;;;;;3.03;2.33;;;20.40;58.40;21.60;101333.00;;;;4989123;28;20172;-49
2022/05/26 09:27:31;;;;;;;4.60;2.50;;;20.40;58.30;21.60;101334.00;;;;4917580;28;20725;-49
2022/05/26 09:30:22;;;;;;;2.70;2.30;;;20.50;58.40;21.60;101351.00;;;;4989955;28;20200;-48
2022/05/26 09:32:48;;;;;;;3.13;2.50;;;20.40;58.30;21.60;101348.00;;;;4988246;28;20206;-51
2022/05/26 09:35:20;;;;;;;5.07;2.40;;;20.40;58.30;21.60;101347.00;;;;4988931;28;20182;-49
2022/05/26 09:37:48;;;;;;;4.90;2.40;;;20.50;58.40;21.70;101345.00;;;;4988372;28;20194;-50
2022/05/26 09:40:16;;;;;;;6.87;2.40;;;20.40;58.30;21.70;101351.00;;;;4988266;28;20231;-49
2022/05/26 09:42:42;;;;;;;2.80;2.10;;;20.50;58.30;21.70;101359.00;;;;4988595;28;20190;-50
2022/05/26 09:45:14;;;;;;;2.83;2.30;;;20.50;58.30;21.70;101347.00;;;;4987596;28;20175;-49
2022/05/26 09:47:53;;;;;;;3.63;2.47;;;20.50;58.30;21.70;101349.00;;;;4971667;28;20229;-49
2022/05/26 09:50:52;;;;;;;2.77;2.10;;;20.50;58.30;21.70;101335.00;;;;4987161;28;20196;-50
2022/05/26 09:53:43;;;;;;;3.70;2.30;;;20.50;58.30;21.70;101336.00;;;;4983441;28;20214;-50
2022/05/26 09:56:12;;;;;;;3.40;2.10;;;20.50;58.30;21.70;101356.00;;;;4987928;28;20216;-49
2022/05/26 09:58:41;;;;;;;3.23;2.20;;;20.50;58.30;21.70;101370.00;;;;4988095;28;20182;-50
2022/05/26 10:01:28;;;;;;;4.80;2.40;;;20.50;58.20;21.80;101362.00;;;;4987025;28;20223;-49
2022/05/26 10:04:07;;;;;;;2.43;2.23;;;20.50;58.20;21.80;101359.00;;;;4988056;28;20649;-49
2022/05/26 10:06:36;;;;;;;3.77;2.40;;;20.60;58.30;21.80;101366.00;;;;4987092;28;20180;-48
2022/05/26 10:09:09;;;;;;;5.70;2.40;;;20.50;58.30;21.70;101370.00;;;;4986993;28;20169;-50
2022/05/26 10:12:06;;;;;;;3.13;2.50;;;20.60;58.50;21.70;101367.00;;;;4986959;28;20174;-49
2022/05/26 10:14:55;;;;;;;5.40;2.50;;;20.60;58.60;21.70;101361.00;;;;4987063;28;20566;-51
2022/05/26 10:17:47;;;;;;;3.97;2.20;;;20.60;58.60;21.80;101359.00;;;;4998156;28;20621;-49
2022/05/26 10:20:29;;;;;;;2.40;2.20;;;20.60;58.60;21.50;101362.00;;;;5003376;28;20186;-50
2022/05/26 10:23:21;;;;;;;3.10;2.27;;;20.60;58.50;21.80;101349.00;;;;4989191;28;20190;-48
2022/05/26 10:26:01;;;;;;;2.60;2.30;;;20.70;58.60;21.80;101363.00;;;;4877952;28;20157;-49
2022/05/26 10:28:40;;;;;;;3.13;2.20;;;20.70;58.60;21.80;101369.00;;;;4988460;28;20217;-49
2022/05/26 10:31:28;;;;;;;1.93;1.83;;;20.70;58.60;21.80;101360.00;;;;4973410;28;20224;-50
2022/05/26 10:34:04;;;;;;;3.43;2.30;;;20.70;58.60;21.80;101369.00;;;;4970138;28;20205;-48
2022/05/26 10:37:27;;;;;;;3.73;2.40;;;20.70;58.70;21.80;101371.00;;;;4967217;28;20855;-50
2022/05/26 10:40:21;;;;;;;2.93;2.17;;;20.70;58.70;21.80;101366.00;;;;4985358;28;20709;-51
2022/05/26 10:42:54;;;;;;;2.40;2.20;;;20.80;58.80;21.80;101360.00;;;;4986768;28;20221;-49
2022/05/26 10:45:36;;;;;;;3.43;2.30;;;20.80;58.70;21.90;101369.00;;;;4986359;28;20267;-48
2022/05/26 10:48:32;;;;;;;3.80;2.10;;;20.80;58.70;21.90;101369.00;;;;4971226;28;20216;-49
2022/05/26 10:51:10;;;;;;;3.40;2.30;;;20.80;59.40;21.90;101373.00;;;;4987584;28;20257;-50
2022/05/26 10:53:53;;;;;;;3.10;2.20;;;20.80;58.90;21.90;101372.00;;;;4986104;28;20279;-49
2022/05/26 10:56:39;;;;;;;4.13;2.30;;;20.80;58.80;21.90;101355.00;;;;4986169;28;20212;-49
2022/05/26 10:59:46;;;;;;;2.40;2.20;;;20.80;58.80;22.00;101365.00;;;;4986265;28;20658;-48
2022/05/26 11:02:28;;;;;;;5.47;2.40;;;20.90;59.10;21.90;101367.00;;;;4982672;28;21007;-49
2022/05/26 11:05:12;;;;;;;3.63;2.03;;;20.90;58.90;22.00;101366.00;;;;4987630;28;20225;-49
2022/05/26 11:07:49;;;;;;;9.93;2.20;;;20.90;58.80;22.00;101366.00;;;;4987375;28;20192;-50
2022/05/26 11:10:50;;;;;;;3.33;2.20;;;20.90;58.80;22.00;101368.00;;;;4986881;28;20250;-49
2022/05/26 11:13:36;;;;;;;5.23;2.33;;;20.90;58.90;22.00;101387.00;;;;4987346;28;20203;-49
2022/05/26 11:19:35;;;;;;;2.10;1.90;;;21.00;58.80;22.10;101378.00;;;;4988871;28;20257;-49
2022/05/26 11:22:01;;;;;;;3.10;1.90;;;21.00;58.80;22.10;101374.00;;;;4987761;28;20225;-50
2022/05/26 11:24:27;;;;;;;2.90;2.17;;;21.00;58.80;22.10;101375.00;;;;4987948;28;20748;-50
2022/05/26 11:27:31;;;;;;;2.50;2.00;;;21.00;58.90;22.10;101370.00;;;;4919256;28;20187;-49
2022/05/26 11:30:02;;;;;;;3.03;2.07;;;21.00;59.10;22.10;101369.00;;;;4975303;28;20203;-49
2022/05/26 11:38:27;;;;;;;2.07;1.97;;;21.00;58.70;22.20;101377.00;;;;4991235;28;20174;-48
2022/05/26 11:40:58;;;;;;;2.37;2.10;;;21.00;58.50;22.20;101381.00;;;;4992006;28;20190;-48
2022/05/26 11:43:37;;;;;;;3.13;2.10;;;21.00;58.50;22.20;101376.00;;;;4991975;28;20312;-48